createdAt,value
2022-11-19T00:00:59.683Z,8.8
2022-11-19T00:02:14.081Z,11.4
2022-11-19T00:03:28.390Z,16.9
2022-11-19T00:04:42.679Z,13.8
2022-11-19T00:05:57.009Z,15.8
2022-11-19T00:07:11.428Z,17.9
2022-11-19T00:08:25.767Z,10.4
2022-11-19T00:09:39.113Z,16.9
2022-11-19T00:10:53.384Z,15.9
2022-11-19T00:12:07.805Z,13.8
2022-11-19T00:13:22.115Z,10.7
2022-11-19T00:14:36.401Z,8.5
2022-11-19T00:15:50.679Z,11.9
2022-11-19T00:17:05.094Z,8.1
2022-11-19T00:18:19.413Z,9.9
2022-11-19T00:19:33.702Z,11.4
2022-11-19T00:20:47.968Z,10.5
2022-11-19T00:22:02.382Z,10.1
2022-11-19T00:23:16.714Z,10.7
2022-11-19T00:24:30.999Z,11.1
2022-11-19T00:25:45.275Z,12.2
2022-11-19T00:26:59.672Z,8.3
2022-11-19T00:28:13.991Z,11.2
2022-11-19T00:29:28.289Z,9.6
2022-11-19T00:30:42.554Z,12.2
2022-11-19T00:31:56.964Z,14
2022-11-19T00:33:11.300Z,14.2
2022-11-19T00:34:25.567Z,12.3
2022-11-19T00:35:39.861Z,8.5
2022-11-19T00:38:08.587Z,12.5
2022-11-19T00:39:22.877Z,15.6
2022-11-19T00:40:37.215Z,19.9
2022-11-19T00:41:51.610Z,12.3
2022-11-19T00:43:05.958Z,14.2
2022-11-19T00:44:19.299Z,8.5
2022-11-19T00:45:33.578Z,13.8
2022-11-19T00:46:47.992Z,11.1
2022-11-19T00:48:02.310Z,13.7
2022-11-19T00:49:16.599Z,13.4
2022-11-19T00:50:30.876Z,10.9
2022-11-19T00:51:45.290Z,14.3
2022-11-19T00:52:59.612Z,7
2022-11-19T00:54:13.891Z,15.8
2022-11-19T00:55:28.176Z,14.1
2022-11-19T00:56:42.588Z,16.1
2022-11-19T00:57:56.902Z,18
2022-11-19T00:59:11.191Z,11.2
2022-11-19T01:00:25.481Z,12.2
2022-11-19T01:01:39.873Z,16.7
2022-11-19T01:02:54.194Z,13
2022-11-19T01:04:08.493Z,13.4
2022-11-19T01:05:22.760Z,15.5
2022-11-19T01:06:37.174Z,16.4
2022-11-19T01:07:51.497Z,12.3
2022-11-19T01:09:05.773Z,10.1
2022-11-19T01:10:20.065Z,12.9
2022-11-19T01:12:48.803Z,10.8
2022-11-19T01:14:03.083Z,9.1
2022-11-19T01:15:17.424Z,17.8
2022-11-19T01:16:31.830Z,16.3
2022-11-19T01:17:46.155Z,12.8
2022-11-19T01:18:59.525Z,14.7
2022-11-19T01:20:13.800Z,12.5
2022-11-19T01:21:28.201Z,12.9
2022-11-19T01:22:42.521Z,10.5
2022-11-19T01:23:56.799Z,14.2
2022-11-19T01:25:11.081Z,20.3
2022-11-19T01:26:25.500Z,13
2022-11-19T01:27:39.818Z,11.8
2022-11-19T01:28:54.104Z,10.4
2022-11-19T01:30:08.391Z,18.7
2022-11-19T01:31:22.801Z,12.4
2022-11-19T01:32:37.123Z,13.6
2022-11-19T01:33:51.391Z,15.5
2022-11-19T01:35:05.668Z,16.1
2022-11-19T01:36:20.083Z,13.2
2022-11-19T01:37:34.405Z,12.9
2022-11-19T01:38:48.683Z,14.9
2022-11-19T01:40:02.963Z,16.8
2022-11-19T01:41:17.383Z,18.1
2022-11-19T01:42:31.712Z,11.6
2022-11-19T01:43:45.988Z,14
2022-11-19T01:45:00.258Z,12.9
2022-11-19T01:46:14.680Z,13.9
2022-11-19T01:47:28.995Z,11
2022-11-19T01:48:43.290Z,14.4
2022-11-19T01:49:57.613Z,15.4
2022-11-19T01:51:12.024Z,14.7
2022-11-19T01:52:26.373Z,12.6
2022-11-19T01:53:39.709Z,14.9
2022-11-19T01:54:54.003Z,9.6
2022-11-19T01:56:08.404Z,11.7
2022-11-19T01:57:22.730Z,13
2022-11-19T01:58:37.007Z,17.2
2022-11-19T01:59:51.296Z,8.3
2022-11-19T02:01:05.689Z,10
2022-11-19T02:02:20.023Z,15.4
2022-11-19T02:03:34.303Z,15.3
2022-11-19T02:04:48.581Z,19.6
2022-11-19T02:06:02.987Z,17.2
2022-11-19T02:07:17.319Z,12.7
2022-11-19T02:08:31.600Z,13.4
2022-11-19T02:09:45.880Z,10.2
2022-11-19T02:11:00.296Z,13.9
2022-11-19T02:12:14.612Z,13.5
2022-11-19T02:13:28.890Z,11.5
2022-11-19T02:15:57.572Z,12.3
2022-11-19T02:17:11.904Z,17.7
2022-11-19T02:18:26.191Z,13.7
2022-11-19T02:19:40.464Z,18.2
2022-11-19T02:20:54.863Z,11.2
2022-11-19T02:22:09.194Z,13.1
2022-11-19T02:23:23.470Z,13.4
2022-11-19T02:24:37.817Z,15.5
2022-11-19T02:25:52.222Z,9.6
2022-11-19T02:27:06.568Z,14.3
2022-11-19T02:28:19.905Z,14.2
2022-11-19T02:29:34.192Z,16.6
2022-11-19T02:30:48.597Z,12.7
2022-11-19T02:32:02.916Z,8.2
2022-11-19T02:33:17.196Z,12.7
2022-11-19T02:34:31.478Z,13.1
2022-11-19T02:35:45.887Z,15.8
2022-11-19T02:37:00.215Z,14.5
2022-11-19T02:38:14.488Z,12.6
2022-11-19T02:39:28.768Z,10.7
2022-11-19T02:40:43.187Z,17.4
2022-11-19T02:41:57.503Z,13.2
2022-11-19T02:43:11.791Z,13.6
2022-11-19T02:44:26.070Z,13.5
2022-11-19T02:45:40.466Z,16.7
2022-11-19T02:46:54.807Z,15.7
2022-11-19T02:48:09.085Z,10.8
2022-11-19T02:49:23.363Z,13.3
2022-11-19T02:50:37.762Z,15.1
2022-11-19T02:51:52.082Z,14.4
2022-11-19T02:53:06.379Z,17.3
2022-11-19T02:54:20.661Z,18.4
2022-11-19T02:55:35.062Z,19.3
2022-11-19T02:56:49.383Z,13.8
2022-11-19T02:58:03.661Z,10.6
2022-11-19T02:59:18.014Z,12.9
2022-11-19T03:00:32.419Z,14.8
2022-11-19T03:01:46.754Z,18.2
2022-11-19T03:04:14.382Z,17.6
2022-11-19T03:05:28.796Z,15.5
2022-11-19T03:06:43.102Z,17.9
2022-11-19T03:07:57.389Z,17.7
2022-11-19T03:09:11.681Z,14.4
2022-11-19T03:10:26.088Z,16.1
2022-11-19T03:11:40.402Z,19.8
2022-11-19T03:12:54.678Z,13.4
2022-11-19T03:14:08.960Z,8.2
2022-11-19T03:15:23.372Z,10.3
2022-11-19T03:16:37.697Z,14.2
2022-11-19T03:17:51.976Z,17.9
2022-11-19T03:19:06.252Z,14.2
2022-11-19T03:21:34.984Z,19.7
2022-11-19T03:24:03.545Z,11.2
2022-11-19T03:25:17.972Z,12.3
2022-11-19T03:26:32.288Z,14.9
2022-11-19T03:27:46.567Z,11.9
2022-11-19T03:29:00.851Z,11.3
2022-11-19T03:30:15.251Z,15.5
2022-11-19T03:31:29.587Z,15.8
2022-11-19T03:32:43.861Z,14.1
2022-11-19T03:33:58.205Z,15.5
2022-11-19T03:35:12.620Z,13.6
2022-11-19T03:36:26.944Z,13.8
2022-11-19T03:37:40.297Z,12.5
2022-11-19T03:38:54.589Z,21.4
2022-11-19T03:40:08.981Z,15.4
2022-11-19T03:41:23.320Z,15.5
2022-11-19T03:42:37.586Z,12.3
2022-11-19T03:43:51.878Z,8.8
2022-11-19T03:45:06.280Z,17.5
2022-11-19T03:46:20.600Z,13.9
2022-11-19T03:47:34.888Z,15.1
2022-11-19T03:48:49.200Z,13.9
2022-11-19T03:50:03.581Z,9.8
2022-11-19T03:51:17.912Z,9.3
2022-11-19T03:52:32.177Z,16.1
2022-11-19T03:53:46.463Z,14.7
2022-11-19T03:55:00.880Z,20.5
2022-11-19T03:56:15.206Z,10.8
2022-11-19T03:57:29.477Z,13.1
2022-11-19T03:58:43.761Z,10.2
2022-11-19T03:59:58.174Z,15
2022-11-19T04:01:12.493Z,11.7
2022-11-19T04:02:26.780Z,7.6
2022-11-19T04:04:55.456Z,17.3
2022-11-19T04:06:09.774Z,10.8
2022-11-19T04:07:24.071Z,7.4
2022-11-19T04:08:38.410Z,15.7
2022-11-19T04:09:52.812Z,12.6
2022-11-19T04:12:20.492Z,8.5
2022-11-19T04:13:34.774Z,11.2
2022-11-19T04:14:49.184Z,14.4
2022-11-19T04:16:03.524Z,12
2022-11-19T04:17:17.803Z,9.6
2022-11-19T04:18:32.083Z,11.2
2022-11-19T04:19:46.484Z,9.9
2022-11-19T04:21:00.812Z,12.7
2022-11-19T04:22:15.082Z,9.7
2022-11-19T04:23:29.378Z,14.8
2022-11-19T04:24:43.778Z,12.5
2022-11-19T04:25:58.115Z,12
2022-11-19T04:27:12.392Z,11.7
2022-11-19T04:28:26.676Z,11.3
2022-11-19T04:29:41.071Z,11.3
2022-11-19T04:30:55.394Z,13.6
2022-11-19T04:32:09.687Z,10.7
2022-11-19T04:33:23.972Z,17.9
2022-11-19T04:34:38.365Z,10.1
2022-11-19T04:35:52.699Z,9.5
2022-11-19T04:37:06.986Z,9.4
2022-11-19T04:38:21.257Z,8.3
2022-11-19T04:39:35.663Z,7.7
2022-11-19T04:40:49.983Z,16.1
2022-11-19T04:42:04.273Z,14
2022-11-19T04:43:18.618Z,11
2022-11-19T04:44:33.012Z,20.7
2022-11-19T04:45:47.349Z,11.1
2022-11-19T04:47:00.711Z,12.8
2022-11-19T04:48:14.994Z,15.5
2022-11-19T04:49:29.389Z,13.7
2022-11-19T04:50:43.725Z,14.1
2022-11-19T04:53:12.445Z,15.9
2022-11-19T04:54:26.731Z,8.1
2022-11-19T04:55:41.151Z,14.4
2022-11-19T04:56:55.473Z,11.8
2022-11-19T04:58:09.741Z,13.6
2022-11-19T04:59:24.023Z,16.7
2022-11-19T05:00:38.444Z,11.6
2022-11-19T05:01:52.759Z,9.5
2022-11-19T05:03:07.032Z,9.5
2022-11-19T05:04:21.312Z,9.8
2022-11-19T05:05:35.730Z,13.3
2022-11-19T05:06:50.063Z,9.8
2022-11-19T05:08:04.336Z,7.1
2022-11-19T05:09:18.619Z,16.3
2022-11-19T05:10:33.018Z,9.7
2022-11-19T05:11:47.346Z,11.6
2022-11-19T05:13:01.636Z,11.1
2022-11-19T05:14:15.920Z,16.5
2022-11-19T05:15:30.323Z,9.8
2022-11-19T05:16:44.636Z,10.1
2022-11-19T05:17:58.924Z,5.6
2022-11-19T05:19:13.198Z,11.7
2022-11-19T05:20:27.622Z,10.1
2022-11-19T05:21:41.944Z,11.7
2022-11-19T05:22:56.215Z,13.4
2022-11-19T05:24:10.501Z,17.8
2022-11-19T05:25:24.899Z,15.2
2022-11-19T05:26:39.228Z,9.6
2022-11-19T05:29:07.788Z,6.8
2022-11-19T05:30:22.201Z,7.6
2022-11-19T05:31:36.526Z,13.2
2022-11-19T05:32:50.807Z,9.5
2022-11-19T05:34:05.080Z,11.7
2022-11-19T05:35:19.493Z,9.2
2022-11-19T05:36:33.821Z,9.5
2022-11-19T05:37:48.158Z,12.3
2022-11-19T05:39:01.557Z,8.1
2022-11-19T05:40:15.901Z,8.7
2022-11-19T05:41:29.242Z,6.2
2022-11-19T05:42:43.520Z,8.6
2022-11-19T05:43:57.944Z,8.6
2022-11-19T05:45:12.259Z,9.6
2022-11-19T05:46:26.539Z,7.7
2022-11-19T05:47:40.832Z,7.4
2022-11-19T05:48:55.238Z,8.1
2022-11-19T05:50:09.555Z,7
2022-11-19T05:51:23.843Z,8.7
2022-11-19T05:52:38.111Z,7
2022-11-19T05:53:52.535Z,8.1
2022-11-19T05:55:06.850Z,7.9
2022-11-19T05:56:21.135Z,7.3
2022-11-19T05:57:35.427Z,7.5
2022-11-19T05:58:49.826Z,11.5
2022-11-19T06:02:32.713Z,6.7
2022-11-19T06:03:47.120Z,11.4
2022-11-19T06:05:01.445Z,10
2022-11-19T06:06:15.712Z,5.2
2022-11-19T06:07:29.992Z,5.8
2022-11-19T06:08:44.363Z,8.2
2022-11-19T06:09:58.603Z,7
2022-11-19T06:11:12.824Z,8.6
2022-11-19T06:12:27.133Z,5.8
2022-11-19T06:13:41.396Z,8.7
2022-11-19T06:14:55.754Z,6.6
2022-11-19T06:16:10.093Z,6.5
2022-11-19T06:17:23.448Z,5.1
2022-11-19T06:18:37.712Z,6.1
2022-11-19T06:19:52.085Z,8.7
2022-11-19T06:21:06.333Z,11.7
2022-11-19T06:22:20.562Z,6.1
2022-11-19T06:23:34.794Z,4.4
2022-11-19T06:24:49.018Z,5.4
2022-11-19T06:26:03.312Z,13.4
2022-11-19T06:27:17.554Z,7.8
2022-11-19T06:28:31.790Z,6.3
2022-11-19T06:29:46.009Z,6
2022-11-19T06:31:00.245Z,8.4
2022-11-19T06:32:14.539Z,10.7
2022-11-19T06:33:28.780Z,6.4
2022-11-19T06:34:42.995Z,7.6
2022-11-19T06:35:57.235Z,9.1
2022-11-19T06:37:11.473Z,5.5
2022-11-19T06:38:25.756Z,7.3
2022-11-19T06:39:40.008Z,9.2
2022-11-19T06:40:54.225Z,6.8
2022-11-19T06:42:08.000Z,6.1
2022-11-19T06:43:22.686Z,6.1
2022-11-19T06:44:36.979Z,6.7
2022-11-19T06:45:51.230Z,7
2022-11-19T06:47:05.449Z,4.6
2022-11-19T06:48:19.730Z,7.4
2022-11-19T06:49:33.065Z,5
2022-11-19T06:50:47.347Z,6.3
2022-11-19T06:52:00.659Z,6.3
2022-11-19T06:53:14.877Z,11.8
2022-11-19T06:54:29.184Z,6.1
2022-11-19T06:59:26.148Z,5
2022-11-19T07:00:40.438Z,6.1
2022-11-19T07:01:54.690Z,4.1
2022-11-19T07:03:08.911Z,4.5
2022-11-19T07:04:23.152Z,5.7
2022-11-19T07:06:51.683Z,3.5
2022-11-19T07:08:05.910Z,6.5
2022-11-19T07:09:20.145Z,6.3
2022-11-19T07:10:34.371Z,7.4
2022-11-19T07:11:48.598Z,6.5
2022-11-19T07:13:02.892Z,6.6
2022-11-19T07:14:17.133Z,5.3
2022-11-19T07:15:31.361Z,7.1
2022-11-19T07:16:45.587Z,8.8
2022-11-19T07:17:59.815Z,7.1
2022-11-19T07:19:14.112Z,4.5
2022-11-19T07:20:28.367Z,6.4
2022-11-19T07:21:42.596Z,4.5
2022-11-19T07:22:56.881Z,4.7
2022-11-19T07:24:10.221Z,6.4
2022-11-19T07:25:24.503Z,6.4
2022-11-19T07:26:37.785Z,5.5
2022-11-19T07:27:52.017Z,10.2
2022-11-19T07:29:06.315Z,5.7
2022-11-19T07:30:20.555Z,5.7
2022-11-19T07:31:34.793Z,4.7
2022-11-19T07:32:49.025Z,4.8
2022-11-19T07:34:03.242Z,8.3
2022-11-19T07:35:17.542Z,4.8
2022-11-19T07:36:31.793Z,5.4
2022-11-19T07:37:46.019Z,5.7
2022-11-19T07:39:00.234Z,7.1
2022-11-19T07:40:14.474Z,9.5
2022-11-19T07:41:28.771Z,5.9
2022-11-19T07:42:43.011Z,5.6
2022-11-19T07:43:57.232Z,6.9
2022-11-19T07:45:11.474Z,4.8
2022-11-19T07:46:25.695Z,6.4
2022-11-19T07:47:39.991Z,5.7
2022-11-19T07:48:54.235Z,9.1
2022-11-19T07:50:08.456Z,4.2
2022-11-19T07:51:22.702Z,9
2022-11-19T07:52:36.924Z,6
2022-11-19T07:53:51.217Z,10.7
2022-11-19T07:55:05.456Z,9.5
2022-11-19T07:56:19.693Z,8.1
2022-11-19T07:57:33.980Z,6.8
2022-11-19T07:58:47.314Z,6.6
2022-11-19T08:00:01.594Z,8.1
2022-11-19T08:01:14.895Z,6.5
2022-11-19T08:02:29.106Z,7.4
2022-11-19T08:03:43.416Z,3.8
2022-11-19T08:04:57.666Z,6.1
2022-11-19T08:06:11.892Z,5.5
2022-11-19T08:07:26.104Z,5.2
2022-11-19T08:08:40.346Z,7
2022-11-19T08:09:54.641Z,4.6
2022-11-19T08:11:08.875Z,6
2022-11-19T08:12:23.105Z,8.3
2022-11-19T08:13:37.332Z,7.8
2022-11-19T08:14:51.568Z,10.4
2022-11-19T08:16:05.865Z,4.8
2022-11-19T08:17:20.114Z,6.7
2022-11-19T08:18:34.344Z,6.9
2022-11-19T08:19:48.560Z,6.9
2022-11-19T08:21:02.794Z,7.6
2022-11-19T08:22:17.092Z,4.8
2022-11-19T08:23:31.338Z,3.3
2022-11-19T08:24:45.567Z,4.3
2022-11-19T08:25:59.792Z,4.6
2022-11-19T08:27:14.006Z,4.5
2022-11-19T08:28:28.306Z,4.7
2022-11-19T08:29:42.560Z,8.7
2022-11-19T08:30:56.778Z,7.4
2022-11-19T08:32:11.059Z,5.8
2022-11-19T08:33:24.360Z,3.3
2022-11-19T08:34:38.615Z,4.8
2022-11-19T08:35:52.829Z,4.3
2022-11-19T08:37:07.066Z,6.4
2022-11-19T08:38:21.280Z,8.5
2022-11-19T08:39:35.590Z,5.2
2022-11-19T08:40:49.835Z,7.8
2022-11-19T08:42:04.059Z,2.9
2022-11-19T08:43:18.281Z,5.3
2022-11-19T08:44:32.499Z,4
2022-11-19T08:45:46.809Z,5.1
2022-11-19T08:47:01.058Z,3.5
2022-11-19T08:48:15.268Z,10.7
2022-11-19T08:49:29.502Z,3.5
2022-11-19T08:50:43.737Z,2.8
2022-11-19T08:51:58.040Z,5.4
2022-11-19T08:53:12.279Z,5.7
2022-11-19T08:54:26.494Z,8.1
2022-11-19T08:55:40.726Z,5
2022-11-19T08:56:54.949Z,7
2022-11-19T08:58:09.260Z,4.2
2022-11-19T08:59:23.498Z,4.1
2022-11-19T09:00:37.727Z,5.1
2022-11-19T09:01:51.952Z,4.1
2022-11-19T09:04:20.535Z,4.3
2022-11-19T09:05:34.812Z,3.2
2022-11-19T09:06:48.109Z,3.8
2022-11-19T09:08:02.335Z,3.5
2022-11-19T09:09:16.646Z,5.6
2022-11-19T09:10:30.882Z,7.6
2022-11-19T09:11:45.114Z,9.2
2022-11-19T09:12:59.339Z,7
2022-11-19T09:14:13.558Z,5.8
2022-11-19T09:15:27.874Z,5.1
2022-11-19T09:16:42.105Z,6
2022-11-19T09:17:56.337Z,7.8
2022-11-19T09:19:10.555Z,2.1
2022-11-19T09:20:24.798Z,4.5
2022-11-19T09:21:39.095Z,4
2022-11-19T09:24:07.551Z,5.3
2022-11-19T09:25:21.789Z,6.5
2022-11-19T09:26:36.019Z,5.8
2022-11-19T09:27:50.304Z,5.3
2022-11-19T09:29:04.551Z,7.1
2022-11-19T09:30:18.785Z,4
2022-11-19T09:32:47.232Z,6
2022-11-19T09:34:01.540Z,9.3
2022-11-19T09:35:15.776Z,8.8
2022-11-19T09:36:30.008Z,8.3
2022-11-19T09:37:44.290Z,5
2022-11-19T09:38:57.624Z,3.4
2022-11-19T09:40:11.911Z,8.7
2022-11-19T09:42:39.428Z,6.2
2022-11-19T09:43:53.722Z,5
2022-11-19T09:45:07.976Z,5.6
2022-11-19T09:46:22.199Z,6.1
2022-11-19T09:47:36.417Z,3.6
2022-11-19T09:48:50.651Z,2.6
2022-11-19T09:50:04.948Z,2.7
2022-11-19T09:51:19.193Z,5.4
2022-11-19T09:52:33.417Z,2
2022-11-19T09:53:47.638Z,4.5
2022-11-19T09:55:01.877Z,5.6
2022-11-19T09:56:16.175Z,3.8
2022-11-19T09:57:30.409Z,3.9
2022-11-19T09:58:44.653Z,5.6
2022-11-19T09:59:58.872Z,2.7
2022-11-19T10:01:13.103Z,5.2
2022-11-19T10:02:27.388Z,6.3
2022-11-19T10:03:41.637Z,3.4
2022-11-19T10:04:55.873Z,7.9
2022-11-19T10:06:10.094Z,3.5
2022-11-19T10:07:24.314Z,3.7
2022-11-19T10:08:38.619Z,3.6
2022-11-19T10:09:52.861Z,6
2022-11-19T10:11:07.080Z,6.2
2022-11-19T10:12:21.372Z,4.2
2022-11-19T10:13:34.708Z,4.2
2022-11-19T10:14:49.002Z,5.2
2022-11-19T10:16:02.293Z,5.5
2022-11-19T10:17:16.517Z,4.6
2022-11-19T10:18:30.813Z,3.2
2022-11-19T10:19:45.054Z,7.7
2022-11-19T10:20:59.284Z,3.8
2022-11-19T10:22:13.516Z,6.2
2022-11-19T10:23:27.750Z,5
2022-11-19T10:24:42.033Z,3.6
2022-11-19T10:25:56.283Z,8.8
2022-11-19T10:27:10.502Z,5.7
2022-11-19T10:28:24.740Z,3.7
2022-11-19T10:29:38.955Z,6.7
2022-11-19T10:30:53.259Z,4.5
2022-11-19T10:32:07.509Z,3.8
2022-11-19T10:33:21.739Z,3.9
2022-11-19T10:34:35.970Z,3.8
2022-11-19T10:35:50.193Z,4
2022-11-19T10:37:04.478Z,3.4
2022-11-19T10:38:18.728Z,3.2
2022-11-19T10:39:32.957Z,3.4
2022-11-19T10:42:01.411Z,3.8
2022-11-19T10:43:15.710Z,5.5
2022-11-19T10:44:29.941Z,4.9
2022-11-19T10:45:44.168Z,5.7
2022-11-19T10:46:58.460Z,5.2
2022-11-19T10:48:11.761Z,5.3
2022-11-19T10:49:25.999Z,5
2022-11-19T10:50:40.232Z,4.5
2022-11-19T10:51:54.456Z,4.7
2022-11-19T10:53:08.667Z,4.1
2022-11-19T10:54:22.971Z,5.9
2022-11-19T10:55:37.210Z,2
2022-11-19T10:56:51.442Z,4.2
2022-11-19T10:58:05.667Z,7.3
2022-11-19T10:59:19.900Z,1.9
2022-11-19T11:00:34.204Z,3.3
2022-11-19T11:01:48.447Z,2.6
2022-11-19T11:03:02.671Z,5.5
2022-11-19T11:04:16.892Z,3.9
2022-11-19T11:05:31.121Z,2.4
2022-11-19T11:06:45.408Z,4.4
2022-11-19T11:07:59.657Z,5.1
2022-11-19T11:09:13.895Z,4.8
2022-11-19T11:10:28.106Z,3.2
2022-11-19T11:11:42.331Z,2.7
2022-11-19T11:12:56.640Z,4
2022-11-19T11:14:10.871Z,2.6
2022-11-19T11:15:25.111Z,4.8
2022-11-19T11:16:39.327Z,5.1
2022-11-19T11:17:53.565Z,4.1
2022-11-19T11:19:07.920Z,3.1
2022-11-19T11:20:22.205Z,4
2022-11-19T11:21:35.502Z,4.6
2022-11-19T11:22:49.719Z,4.3
2022-11-19T11:24:04.032Z,4
2022-11-19T11:25:18.258Z,3.3
2022-11-19T11:27:46.712Z,2.7
2022-11-19T11:29:00.944Z,2.7
2022-11-19T11:30:15.242Z,2.1
2022-11-19T11:31:29.484Z,2.6
2022-11-19T11:32:43.712Z,3.1
2022-11-19T11:33:57.939Z,5.9
2022-11-19T11:35:12.162Z,2.5
2022-11-19T11:36:26.473Z,4.8
2022-11-19T11:37:40.705Z,2.6
2022-11-19T11:38:54.927Z,3.8
2022-11-19T11:40:09.165Z,2.8
2022-11-19T11:41:23.391Z,3
2022-11-19T11:42:37.696Z,3.4
2022-11-19T11:43:51.931Z,2.4
2022-11-19T11:45:06.151Z,5.6
2022-11-19T11:46:20.378Z,3.1
2022-11-19T11:47:34.607Z,3.8
2022-11-19T11:48:48.913Z,2.2
2022-11-19T11:50:03.147Z,2.7
2022-11-19T11:51:17.374Z,5.1
2022-11-19T11:52:31.662Z,2.4
2022-11-19T11:53:44.998Z,4.8
2022-11-19T11:54:59.280Z,3.2
2022-11-19T11:56:12.625Z,3.4
2022-11-19T11:57:25.958Z,2.8
2022-11-19T11:58:40.237Z,2.5
2022-11-19T11:59:54.536Z,3
2022-11-19T12:01:07.815Z,4.8
2022-11-19T12:03:36.374Z,5.9
2022-11-19T12:04:50.583Z,3.8
2022-11-19T12:06:04.810Z,1.4
2022-11-19T12:07:19.039Z,3.6
2022-11-19T12:08:33.352Z,3.3
2022-11-19T12:09:47.592Z,1.7
2022-11-19T12:11:01.804Z,2.3
2022-11-19T12:12:16.035Z,2.9
2022-11-19T12:13:30.262Z,3.6
2022-11-19T12:14:44.573Z,3.6
2022-11-19T12:15:58.802Z,2.4
2022-11-19T12:18:27.262Z,3.1
2022-11-19T12:19:41.486Z,1.2
2022-11-19T12:20:55.794Z,3.6
2022-11-19T12:22:10.030Z,2.4
2022-11-19T12:23:24.252Z,1.9
2022-11-19T12:24:38.486Z,3.1
2022-11-19T12:25:52.710Z,2.7
2022-11-19T12:27:07.002Z,4.3
2022-11-19T12:28:21.257Z,5.1
2022-11-19T12:29:35.476Z,3.5
2022-11-19T12:30:49.699Z,4.7
2022-11-19T12:32:03.996Z,2.5
2022-11-19T12:33:18.285Z,1.7
2022-11-19T12:34:32.564Z,7.8
2022-11-19T12:35:45.872Z,3.8
2022-11-19T12:37:00.103Z,3.7
2022-11-19T12:38:14.385Z,3.2
2022-11-19T12:39:28.636Z,2.4
2022-11-19T12:40:42.864Z,3.6
2022-11-19T12:41:57.097Z,3.7
2022-11-19T12:43:11.311Z,3.1
2022-11-19T12:44:25.616Z,2.3
2022-11-19T12:45:39.861Z,2.4
2022-11-19T12:46:54.096Z,3.1
2022-11-19T12:48:08.317Z,2.9
2022-11-19T12:49:22.547Z,5.1
2022-11-19T12:50:36.840Z,2.9
2022-11-19T12:51:51.091Z,1.4
2022-11-19T12:53:05.317Z,3.7
2022-11-19T12:55:33.772Z,3.1
2022-11-19T12:56:48.057Z,2
2022-11-19T12:58:02.295Z,4.5
2022-11-19T12:59:16.531Z,6.4
2022-11-19T13:00:30.756Z,1.8
2022-11-19T13:01:44.983Z,3
2022-11-19T13:02:59.291Z,3.7
2022-11-19T13:04:13.528Z,6.5
2022-11-19T13:05:27.760Z,2.3
2022-11-19T13:06:42.038Z,3.5
2022-11-19T13:07:55.379Z,2.5
2022-11-19T13:09:09.650Z,3.1
2022-11-19T13:10:22.949Z,2.1
2022-11-19T13:11:37.185Z,2.7
2022-11-19T13:14:05.727Z,5.8
2022-11-19T13:15:19.951Z,5.1
2022-11-19T13:16:34.164Z,4
2022-11-19T13:17:48.395Z,2.7
2022-11-19T13:19:02.699Z,4.5
2022-11-19T13:20:16.952Z,2.6
2022-11-19T13:22:45.391Z,3.6
2022-11-19T13:23:59.629Z,3.2
2022-11-19T13:25:13.919Z,5.3
2022-11-19T13:26:28.173Z,3.3
2022-11-19T13:27:42.394Z,4.3
2022-11-19T13:28:56.614Z,8
2022-11-19T13:30:10.852Z,8.2
2022-11-19T13:31:25.150Z,4.2
2022-11-19T13:32:39.387Z,4.5
2022-11-19T13:33:53.623Z,5.7
2022-11-19T13:35:07.842Z,7.9
2022-11-19T13:36:22.075Z,6.6
2022-11-19T13:37:36.359Z,4.4
2022-11-19T13:38:50.609Z,4.4
2022-11-19T13:40:04.831Z,5
2022-11-19T13:41:19.124Z,5.7
2022-11-19T13:42:32.449Z,4.5
2022-11-19T13:43:46.746Z,4
2022-11-19T13:45:01.019Z,3.5
2022-11-19T13:46:14.366Z,3.7
2022-11-19T13:47:28.664Z,2.9
2022-11-19T13:48:42.948Z,2.9
2022-11-19T13:49:56.245Z,2.7
2022-11-19T13:51:10.475Z,3
2022-11-19T13:52:24.781Z,4.1
2022-11-19T13:53:39.025Z,2.5
2022-11-19T13:54:53.247Z,1.5
2022-11-19T13:56:07.468Z,4.2
2022-11-19T13:57:21.702Z,3.7
2022-11-19T13:58:36.008Z,2.8
2022-11-19T13:59:50.241Z,3.1
2022-11-19T14:01:04.462Z,5.2
2022-11-19T14:02:18.703Z,3.6
2022-11-19T14:03:32.927Z,4
2022-11-19T14:04:47.231Z,3.3
2022-11-19T14:06:01.470Z,3.4
2022-11-19T14:07:15.693Z,3.1
2022-11-19T14:08:29.926Z,3.9
2022-11-19T14:09:44.139Z,4.8
2022-11-19T14:10:58.448Z,3.7
2022-11-19T14:12:12.683Z,9.1
2022-11-19T14:13:26.918Z,5.5
2022-11-19T14:14:41.132Z,2.3
2022-11-19T14:15:55.360Z,3.6
2022-11-19T14:17:09.670Z,2.7
2022-11-19T14:18:23.901Z,3.4
2022-11-19T14:20:52.429Z,3.4
2022-11-19T14:22:05.731Z,1.8
2022-11-19T14:23:19.964Z,3.5
2022-11-19T14:24:34.181Z,4.5
2022-11-19T14:25:48.416Z,2.7
2022-11-19T14:27:02.633Z,4
2022-11-19T14:28:16.933Z,4.9
2022-11-19T14:29:31.180Z,5.2
2022-11-19T14:31:59.637Z,3.6
2022-11-19T14:33:13.856Z,1.8
2022-11-19T14:34:28.171Z,3.8
2022-11-19T14:35:42.404Z,3.3
2022-11-19T14:36:56.631Z,4.1
2022-11-19T14:38:10.852Z,3.1
2022-11-19T14:39:25.089Z,3.8
2022-11-19T14:40:39.385Z,4.4
2022-11-19T14:41:53.622Z,4.4
2022-11-19T14:43:07.845Z,3.4
2022-11-19T14:44:22.074Z,2.1
2022-11-19T14:46:50.613Z,4.3
2022-11-19T14:48:04.852Z,3.9
2022-11-19T14:49:19.073Z,2.5
2022-11-19T14:50:33.302Z,2.9
2022-11-19T14:51:47.519Z,6.6
2022-11-19T14:53:01.878Z,4.2
2022-11-19T14:54:16.164Z,4
2022-11-19T14:55:29.499Z,5.1
2022-11-19T14:56:42.793Z,2.4
2022-11-19T14:57:57.038Z,5.1
2022-11-19T14:59:11.000Z,3.3
2022-11-19T15:00:25.491Z,3
2022-11-19T15:01:39.713Z,6.4
2022-11-19T15:02:54.016Z,4.7
2022-11-19T15:04:08.264Z,5.1
2022-11-19T15:05:22.484Z,4.2
2022-11-19T15:06:36.718Z,6.6
2022-11-19T15:07:50.934Z,3.6
2022-11-19T15:09:05.245Z,5.2
2022-11-19T15:10:19.472Z,4.3
2022-11-19T15:11:33.704Z,1.5
2022-11-19T15:12:47.929Z,3.9
2022-11-19T15:14:02.155Z,2.8
2022-11-19T15:15:16.459Z,5.2
2022-11-19T15:16:30.696Z,7.1
2022-11-19T15:17:44.938Z,6.3
2022-11-19T15:18:59.152Z,6.8
2022-11-19T15:20:13.384Z,4.7
2022-11-19T15:21:27.688Z,5.7
2022-11-19T15:22:41.923Z,4.3
2022-11-19T15:23:56.161Z,4.1
2022-11-19T15:25:10.378Z,5.8
2022-11-19T15:26:24.615Z,5.2
2022-11-19T15:27:38.969Z,3.8
2022-11-19T15:28:53.257Z,6.5
2022-11-19T15:30:06.616Z,10.7
2022-11-19T15:32:34.226Z,7.4
2022-11-19T15:33:48.506Z,6.4
2022-11-19T15:35:02.790Z,4.6
2022-11-19T15:36:16.089Z,5.8
2022-11-19T15:37:30.339Z,3.6
2022-11-19T15:38:44.565Z,6.3
2022-11-19T15:39:58.786Z,5
2022-11-19T15:41:13.009Z,6.4
2022-11-19T15:42:27.311Z,5.5
2022-11-19T15:43:41.555Z,2.9
2022-11-19T15:44:55.789Z,7.5
2022-11-19T15:46:10.002Z,5.6
2022-11-19T15:47:24.232Z,6.1
2022-11-19T15:48:38.539Z,5.4
2022-11-19T15:49:52.783Z,5.4
2022-11-19T15:51:07.016Z,5.7
2022-11-19T15:52:21.234Z,4.3
2022-11-19T15:54:49.756Z,6.4
2022-11-19T15:56:04.015Z,6.1
2022-11-19T15:57:18.225Z,5
2022-11-19T15:58:32.000Z,7.7
2022-11-19T15:59:46.680Z,4.7
2022-11-19T16:01:00.996Z,4.3
2022-11-19T16:02:15.234Z,3.4
2022-11-19T16:04:43.700Z,7.2
2022-11-19T16:05:57.920Z,7
2022-11-19T16:07:12.345Z,6.5
2022-11-19T16:08:26.669Z,9.9
2022-11-19T16:09:40.955Z,6.2
2022-11-19T16:10:54.252Z,8.9
2022-11-19T16:12:08.563Z,10.2
2022-11-19T16:13:22.789Z,11.5
2022-11-19T16:14:37.032Z,4.5
2022-11-19T16:15:51.262Z,7.3
2022-11-19T16:17:05.529Z,5.7
2022-11-19T16:18:19.881Z,5.6
2022-11-19T16:22:02.772Z,3.4
2022-11-19T16:23:17.185Z,6
2022-11-19T16:24:31.516Z,5.6
2022-11-19T16:25:45.780Z,5.9
2022-11-19T16:27:00.066Z,7.5
2022-11-19T16:28:14.484Z,8.3
2022-11-19T16:29:28.766Z,4.2
2022-11-19T16:30:43.191Z,6.3
2022-11-19T16:31:57.533Z,6.4
2022-11-19T16:33:11.813Z,7.5
2022-11-19T16:34:26.210Z,6.9
2022-11-19T16:35:40.535Z,7.1
2022-11-19T16:36:54.811Z,4.6
2022-11-19T16:38:09.093Z,6.8
2022-11-19T16:39:23.505Z,5.4
2022-11-19T16:40:37.823Z,5.8
2022-11-19T16:41:52.104Z,6.3
2022-11-19T16:43:06.401Z,5.7
2022-11-19T16:44:20.794Z,8
2022-11-19T16:45:35.122Z,7.6
2022-11-19T16:46:49.407Z,7.2
2022-11-19T16:48:03.697Z,16.6
2022-11-19T16:49:18.095Z,12.1
2022-11-19T16:50:32.420Z,11.9
2022-11-19T16:53:00.988Z,15
2022-11-19T16:54:15.393Z,9.5
2022-11-19T16:55:29.709Z,9.3
2022-11-19T16:56:43.994Z,11.2
2022-11-19T16:57:58.274Z,9.9
2022-11-19T16:59:12.688Z,13.6
2022-11-19T17:00:27.007Z,12.7
2022-11-19T17:01:41.345Z,11.6
2022-11-19T17:02:54.731Z,9.7
2022-11-19T17:05:23.415Z,9.4
2022-11-19T17:06:37.746Z,10.4
2022-11-19T17:07:51.111Z,9.3
2022-11-19T17:09:05.425Z,12.3
2022-11-19T17:10:19.701Z,8.6
2022-11-19T17:11:33.993Z,9.7
2022-11-19T17:12:48.394Z,10.5
2022-11-19T17:14:02.720Z,12.1
2022-11-19T17:15:17.136Z,9.9
2022-11-19T17:16:31.453Z,9.9
2022-11-19T17:17:45.741Z,7.7
2022-11-19T17:19:00.150Z,7.8
2022-11-19T17:20:14.459Z,11.2
2022-11-19T17:21:28.756Z,9.1
2022-11-19T17:22:43.024Z,6.4
2022-11-19T17:23:57.436Z,4.3
2022-11-19T17:25:11.760Z,8.3
2022-11-19T17:26:26.052Z,7.1
2022-11-19T17:27:40.316Z,7.3
2022-11-19T17:28:54.728Z,7.3
2022-11-19T17:30:09.057Z,4.9
2022-11-19T17:31:23.332Z,6.6
2022-11-19T17:32:37.610Z,4.1
2022-11-19T17:33:52.020Z,6.6
2022-11-19T17:35:06.358Z,9.3
2022-11-19T17:36:20.632Z,11
2022-11-19T17:37:34.918Z,6.1
2022-11-19T17:38:49.322Z,6.8
2022-11-19T17:40:03.641Z,8.6
2022-11-19T17:41:17.937Z,7.5
2022-11-19T17:42:32.202Z,8
2022-11-19T17:43:46.611Z,13.5